createdAt,value
2023-05-15T00:04:34.146Z,100288.02
2023-05-15T00:09:26.985Z,100285.73
2023-05-15T00:14:19.747Z,100280.48
2023-05-15T00:19:12.602Z,100272.46
2023-05-15T00:24:06.034Z,100272.48
2023-05-15T00:28:59.255Z,100263.41
2023-05-15T00:33:52.065Z,100262.54
2023-05-15T00:38:45.118Z,100253.65
2023-05-15T00:43:40.971Z,100248.08
2023-05-15T00:48:36.843Z,100238.13
2023-05-15T00:53:29.744Z,100230.99
2023-05-15T00:58:23.625Z,100225.08
2023-05-15T01:03:16.935Z,100237.44
2023-05-15T01:08:24.810Z,100250.69
2023-05-15T01:13:17.901Z,100245.98
2023-05-15T01:18:11.144Z,100246.52
2023-05-15T01:23:15.822Z,100240.27
2023-05-15T01:28:13.487Z,100229.98
2023-05-15T01:33:13.004Z,100195.29
2023-05-15T01:38:18.050Z,100191.77
2023-05-15T01:43:16.874Z,100189.52
2023-05-15T01:48:10.759Z,100192.50
2023-05-15T01:53:05.175Z,100189.73
2023-05-15T01:58:01.741Z,100183.62
2023-05-15T02:02:54.957Z,100169.48
2023-05-15T02:07:49.198Z,100163.54
2023-05-15T02:12:43.648Z,100152.20
2023-05-15T02:17:36.711Z,100149.42
2023-05-15T02:22:29.582Z,100157.13
2023-05-15T02:27:28.272Z,100149.29
2023-05-15T02:32:34.797Z,100139.04
2023-05-15T02:37:32.245Z,100138.54
2023-05-15T02:42:25.013Z,100138.20
2023-05-15T02:47:18.749Z,100126.54
2023-05-15T02:52:11.911Z,100110.16
2023-05-15T02:57:05.233Z,100106.15
2023-05-15T03:01:58.062Z,100094.45
2023-05-15T03:06:50.907Z,100083.28
2023-05-15T03:11:43.713Z,100074.90
2023-05-15T03:16:37.292Z,100077.69
2023-05-15T03:21:30.104Z,100063.73
2023-05-15T03:26:23.226Z,100051.69
2023-05-15T03:31:16.050Z,100038.75
2023-05-15T03:36:09.036Z,100020.75
2023-05-15T03:41:01.893Z,100018.61
2023-05-15T03:45:55.797Z,100017.36
2023-05-15T03:50:49.172Z,100008.25
2023-05-15T03:55:42.109Z,100001.05
2023-05-15T04:00:34.983Z,100000.50
2023-05-15T04:05:27.958Z,100001.53
2023-05-15T04:10:21.209Z,99995.77
2023-05-15T04:15:23.037Z,99990.34
2023-05-15T04:20:18.829Z,99981.78
2023-05-15T04:25:13.717Z,99976.20
2023-05-15T04:30:07.340Z,99966.65
2023-05-15T04:35:00.554Z,99962.11
2023-05-15T04:39:53.401Z,99959.69
2023-05-15T04:44:46.828Z,99954.46
2023-05-15T04:49:41.406Z,99953.77
2023-05-15T04:54:34.230Z,99938.20
2023-05-15T04:59:28.718Z,99937.65
2023-05-15T05:04:21.625Z,99940.93
2023-05-15T05:09:14.902Z,99938.46
2023-05-15T05:14:08.638Z,99923.20
2023-05-15T05:19:02.417Z,99921.46
2023-05-15T05:23:55.249Z,99913.09
2023-05-15T05:28:51.060Z,99913.27
2023-05-15T05:33:43.897Z,99907.74
2023-05-15T05:38:37.988Z,99909.66
2023-05-15T05:43:32.571Z,99915.99
2023-05-15T05:48:26.737Z,99917.73
2023-05-15T05:53:19.686Z,99914.50
2023-05-15T05:58:24.061Z,99923.02
2023-05-15T06:03:17.741Z,99929.67
2023-05-15T06:08:11.200Z,99931.86
2023-05-15T06:13:04.098Z,99934.67
2023-05-15T06:17:56.856Z,99935.98
2023-05-15T06:22:49.722Z,99939.38
2023-05-15T06:27:42.841Z,99938.48
2023-05-15T06:32:35.955Z,99937.02
2023-05-15T06:37:29.036Z,99937.30
2023-05-15T06:42:21.803Z,99940.73
2023-05-15T06:47:14.647Z,99945.94
2023-05-15T06:52:07.779Z,99948.34
2023-05-15T06:57:00.742Z,99945.50
2023-05-15T07:01:53.687Z,99939.66
2023-05-15T07:06:46.516Z,99939.06
2023-05-15T07:11:40.332Z,99946.20
2023-05-15T07:16:33.147Z,99948.59
2023-05-15T07:21:26.334Z,99939.45
2023-05-15T07:26:28.754Z,99933.71
2023-05-15T07:31:27.485Z,99939.41
2023-05-15T07:36:20.310Z,99930.88
2023-05-15T07:41:13.086Z,99928.45
2023-05-15T07:46:05.984Z,99929.36
2023-05-15T07:50:58.829Z,99930.90
2023-05-15T07:55:52.001Z,99928.92
2023-05-15T08:00:45.089Z,99916.93
2023-05-15T08:05:37.874Z,99901.42
2023-05-15T08:10:31.301Z,99899.70
2023-05-15T08:15:24.613Z,99899.95
2023-05-15T08:20:18.359Z,99895.88
2023-05-15T08:25:11.819Z,99889.29
2023-05-15T08:30:05.306Z,99883.34
2023-05-15T08:34:58.895Z,99881.30
2023-05-15T08:39:51.718Z,99880.28
2023-05-15T08:44:45.610Z,99881.17
2023-05-15T08:49:54.039Z,99883.70
2023-05-15T08:54:48.568Z,99884.60
2023-05-15T08:59:41.544Z,99880.80
2023-05-15T09:04:34.787Z,99879.77
2023-05-15T09:09:29.423Z,99878.50
2023-05-15T09:14:22.239Z,99875.63
2023-05-15T09:19:16.658Z,99871.66
2023-05-15T09:24:18.932Z,99871.12
2023-05-15T09:29:12.881Z,99869.88
2023-05-15T09:34:06.547Z,99870.77
2023-05-15T09:39:01.506Z,99866.75
2023-05-15T09:43:56.967Z,99863.98
2023-05-15T09:48:50.889Z,99857.13
2023-05-15T09:53:43.947Z,99846.84
2023-05-15T09:58:36.916Z,99845.61
2023-05-15T10:03:29.822Z,99834.08
2023-05-15T10:08:29.361Z,99814.31
2023-05-15T10:13:24.105Z,99806.67
2023-05-15T10:18:19.983Z,99812.35
2023-05-15T10:23:16.386Z,99815.09
2023-05-15T10:28:11.269Z,99815.57
2023-05-15T10:33:06.459Z,99819.50
2023-05-15T10:43:07.127Z,99840.61
2023-05-15T10:48:00.879Z,99838.11
2023-05-15T10:52:54.043Z,99825.90
2023-05-15T10:57:48.465Z,99820.52
2023-05-15T11:02:41.350Z,99826.34
2023-05-15T11:07:34.195Z,99824.16
2023-05-15T11:12:27.739Z,99819.84
2023-05-15T11:17:20.674Z,99820.73
2023-05-15T11:22:16.837Z,99822.75
2023-05-15T11:27:14.520Z,99818.23
2023-05-15T11:32:42.621Z,99814.69
2023-05-15T11:37:39.366Z,99804.60
2023-05-15T11:42:33.600Z,99800.13
2023-05-15T11:47:26.814Z,99802.77
2023-05-15T11:52:19.728Z,99801.43
2023-05-15T11:57:13.390Z,99796.21
2023-05-15T12:02:07.666Z,99797.63
2023-05-15T12:07:03.301Z,99790.35
2023-05-15T12:11:57.045Z,99784.27
2023-05-15T12:16:53.491Z,99782.06
2023-05-15T12:21:49.289Z,99782.42
2023-05-15T12:26:42.328Z,99786.23
2023-05-15T12:31:36.938Z,99786.02
2023-05-15T12:36:31.138Z,99778.52
2023-05-15T12:41:29.445Z,99766.84
2023-05-15T12:46:30.552Z,99756.88
2023-05-15T12:51:24.133Z,99763.02
2023-05-15T12:56:17.689Z,99756.48
2023-05-15T13:01:10.688Z,99750.09
2023-05-15T13:06:04.452Z,99741.73
2023-05-15T13:10:59.263Z,99741.92
2023-05-15T13:15:52.163Z,99737.08
2023-05-15T13:20:47.724Z,99730.30
2023-05-15T13:25:40.583Z,99715.73
2023-05-15T13:30:36.789Z,99717.58
2023-05-15T13:35:29.704Z,99723.13
2023-05-15T13:40:22.859Z,99714.39
2023-05-15T13:45:17.068Z,99705.17
2023-05-15T13:50:11.905Z,99703.07
2023-05-15T13:55:05.534Z,99698.55
2023-05-15T13:59:58.352Z,99698.52
2023-05-15T14:04:51.160Z,99699.31
2023-05-15T14:09:44.013Z,99707.66
2023-05-15T14:14:37.057Z,99696.35
2023-05-15T14:19:29.882Z,99697.17
2023-05-15T14:24:22.924Z,99698.75
2023-05-15T14:29:15.898Z,99689.45
2023-05-15T14:34:08.782Z,99679.27
2023-05-15T14:39:01.606Z,99667.83
2023-05-15T14:43:54.461Z,99668.36
2023-05-15T14:48:47.438Z,99662.86
2023-05-15T14:53:40.210Z,99641.99
2023-05-15T14:58:33.566Z,99629.36
2023-05-15T15:03:28.624Z,99635.77
2023-05-15T15:08:22.462Z,99634.55
2023-05-15T15:13:16.680Z,99636.04
2023-05-15T15:18:09.619Z,99652.52
2023-05-15T15:23:02.522Z,99679.02
2023-05-15T15:27:55.521Z,99683.83
2023-05-15T15:32:48.562Z,99681.52
2023-05-15T15:37:41.446Z,99683.00
2023-05-15T15:42:35.212Z,99680.66
2023-05-15T15:47:29.726Z,99672.30
2023-05-15T15:52:22.586Z,99670.69
2023-05-15T15:57:16.810Z,99660.39
2023-05-15T16:02:10.783Z,99652.54
2023-05-15T16:07:04.806Z,99646.92
2023-05-15T16:11:57.879Z,99639.55
2023-05-15T16:16:51.099Z,99627.89
2023-05-15T16:21:45.335Z,99628.55
2023-05-15T16:26:41.225Z,99630.10
2023-05-15T16:31:34.504Z,99637.31
2023-05-15T16:36:28.453Z,99641.40
2023-05-15T16:41:22.906Z,99640.34
2023-05-15T16:46:16.210Z,99645.36
2023-05-15T16:51:09.172Z,99644.31
2023-05-15T16:56:02.205Z,99634.66
2023-05-15T17:00:54.999Z,99636.80
2023-05-15T17:05:48.640Z,99640.50
2023-05-15T17:10:41.627Z,99638.17
2023-05-15T17:15:35.027Z,99631.30
2023-05-15T17:20:28.829Z,99623.02
2023-05-15T17:25:21.680Z,99633.23
2023-05-15T17:30:14.616Z,99648.33
2023-05-15T17:35:11.214Z,99663.82
2023-05-15T17:40:04.796Z,99672.87
2023-05-15T17:44:57.946Z,99675.06
2023-05-15T17:49:50.790Z,99666.43
2023-05-15T17:54:43.633Z,99662.84
2023-05-15T17:59:36.431Z,99647.10
2023-05-15T18:04:29.708Z,99649.14
2023-05-15T18:09:24.306Z,99661.21
2023-05-15T18:14:17.630Z,99673.46
2023-05-15T18:19:10.781Z,99668.95
2023-05-15T18:24:03.767Z,99668.44
2023-05-15T18:28:57.046Z,99667.27
2023-05-15T18:33:49.881Z,99670.95
2023-05-15T18:38:42.798Z,99687.38
2023-05-15T18:43:35.593Z,99703.08
2023-05-15T18:48:28.394Z,99720.30
2023-05-15T18:53:21.203Z,99737.68
2023-05-15T18:58:14.040Z,99739.95
2023-05-15T19:03:07.087Z,99743.05
2023-05-15T19:08:00.000Z,99737.48
2023-05-15T19:12:52.854Z,99739.42
2023-05-15T19:17:45.714Z,99739.98
2023-05-15T19:22:38.504Z,99735.45
2023-05-15T19:27:32.075Z,99729.53
2023-05-15T19:32:25.105Z,99728.16
2023-05-15T19:37:18.140Z,99720.37
2023-05-15T19:42:10.984Z,99711.17
2023-05-15T19:47:04.056Z,99707.38
2023-05-15T19:51:56.858Z,99697.45
2023-05-15T19:56:50.182Z,99701.48
2023-05-15T20:01:43.299Z,99700.80
2023-05-15T20:06:36.710Z,99706.75
2023-05-15T20:11:30.027Z,99719.98
2023-05-15T20:16:23.349Z,99708.02
2023-05-15T20:21:17.206Z,99700.35
2023-05-15T20:26:10.405Z,99699.98
2023-05-15T20:31:04.110Z,99691.30
2023-05-15T20:35:57.341Z,99701.78
2023-05-15T20:40:50.898Z,99701.85
2023-05-15T20:45:43.784Z,99695.47
2023-05-15T20:50:36.635Z,99693.11
2023-05-15T20:55:29.803Z,99689.00
2023-05-15T21:00:23.009Z,99688.72
2023-05-15T21:05:16.234Z,99689.46
2023-05-15T21:10:11.628Z,99692.61
2023-05-15T21:15:06.785Z,99690.33
2023-05-15T21:20:01.180Z,99687.69
2023-05-15T21:24:54.819Z,99687.50
2023-05-15T21:29:48.771Z,99686.42
2023-05-15T21:34:42.404Z,99688.14
2023-05-15T21:39:35.318Z,99684.46
2023-05-15T21:44:28.188Z,99680.95
2023-05-15T21:49:21.019Z,99679.89
2023-05-15T21:54:13.884Z,99684.57
2023-05-15T21:59:06.783Z,99681.45
2023-05-15T22:03:59.868Z,99689.14
2023-05-15T22:08:52.677Z,99692.84
2023-05-15T22:13:45.468Z,99689.95
2023-05-15T22:18:38.270Z,99693.36
2023-05-15T22:23:31.574Z,99694.54
2023-05-15T22:28:24.660Z,99699.29
2023-05-15T22:33:17.451Z,99709.11
2023-05-15T22:38:10.663Z,99709.84
2023-05-15T22:43:04.050Z,99714.23
2023-05-15T22:47:57.550Z,99722.98
2023-05-15T22:52:51.305Z,99724.05
2023-05-15T22:57:45.254Z,99728.42
2023-05-15T23:02:38.835Z,99730.69
2023-05-15T23:07:31.621Z,99733.15
2023-05-15T23:12:24.925Z,99735.92
2023-05-15T23:17:18.100Z,99736.08
2023-05-15T23:22:12.150Z,99730.48
2023-05-15T23:27:05.767Z,99726.29
2023-05-15T23:31:58.897Z,99724.68
2023-05-15T23:36:51.730Z,99718.07
2023-05-15T23:41:44.550Z,99717.56
2023-05-15T23:46:39.213Z,99716.74
2023-05-15T23:51:32.498Z,99713.48
2023-05-15T23:56:25.670Z,99708.29
